sensor_id;sensor_type;location;lat;lon;timestamp;P1;durP1;ratioP1;P2;durP2;ratioP2
22068;SDS011;13887;57.196;-2.100;2024-02-28T00:00:15;12.43;;;12.03;;
22068;SDS011;13887;57.196;-2.100;2024-02-28T00:02:43;12.70;;;12.30;;
22068;SDS011;13887;57.196;-2.100;2024-02-28T00:05:11;12.50;;;12.10;;
22068;SDS011;13887;57.196;-2.100;2024-02-28T00:07:38;12.47;;;12.07;;
22068;SDS011;13887;57.196;-2.100;2024-02-28T00:10:05;12.40;;;12.00;;
22068;SDS011;13887;57.196;-2.100;2024-02-28T00:12:33;12.53;;;12.13;;
22068;SDS011;13887;57.196;-2.100;2024-02-28T00:15:01;12.57;;;12.17;;
22068;SDS011;13887;57.196;-2.100;2024-02-28T00:17:28;12.90;;;12.50;;
22068;SDS011;13887;57.196;-2.100;2024-02-28T00:19:55;12.73;;;12.33;;
22068;SDS011;13887;57.196;-2.100;2024-02-28T00:22:23;12.53;;;12.13;;
22068;SDS011;13887;57.196;-2.100;2024-02-28T00:24:50;13.17;;;12.77;;
22068;SDS011;13887;57.196;-2.100;2024-02-28T00:27:17;12.63;;;12.23;;
22068;SDS011;13887;57.196;-2.100;2024-02-28T00:29:45;12.90;;;12.50;;
22068;SDS011;13887;57.196;-2.100;2024-02-28T00:32:13;12.83;;;12.43;;
22068;SDS011;13887;57.196;-2.100;2024-02-28T00:34:40;13.20;;;12.80;;
22068;SDS011;13887;57.196;-2.100;2024-02-28T00:37:08;12.60;;;12.20;;
22068;SDS011;13887;57.196;-2.100;2024-02-28T00:39:35;13.10;;;12.70;;
22068;SDS011;13887;57.196;-2.100;2024-02-28T00:42:02;12.57;;;12.17;;
22068;SDS011;13887;57.196;-2.100;2024-02-28T00:44:29;12.67;;;12.27;;
22068;SDS011;13887;57.196;-2.100;2024-02-28T00:46:56;13.00;;;12.60;;
22068;SDS011;13887;57.196;-2.100;2024-02-28T00:49:24;12.90;;;12.50;;
22068;SDS011;13887;57.196;-2.100;2024-02-28T00:51:51;12.57;;;12.17;;
22068;SDS011;13887;57.196;-2.100;2024-02-28T00:54:18;12.50;;;12.10;;
22068;SDS011;13887;57.196;-2.100;2024-02-28T00:56:46;12.50;;;12.10;;
22068;SDS011;13887;57.196;-2.100;2024-02-28T00:59:13;12.87;;;12.47;;
22068;SDS011;13887;57.196;-2.100;2024-02-28T01:01:40;12.40;;;12.00;;
22068;SDS011;13887;57.196;-2.100;2024-02-28T01:04:08;12.70;;;12.30;;
22068;SDS011;13887;57.196;-2.100;2024-02-28T01:06:35;12.43;;;12.03;;
22068;SDS011;13887;57.196;-2.100;2024-02-28T01:09:04;13.00;;;12.60;;
22068;SDS011;13887;57.196;-2.100;2024-02-28T01:11:31;12.53;;;12.13;;
22068;SDS011;13887;57.196;-2.100;2024-02-28T01:13:59;12.70;;;12.30;;
22068;SDS011;13887;57.196;-2.100;2024-02-28T01:16:26;12.90;;;12.50;;
22068;SDS011;13887;57.196;-2.100;2024-02-28T01:18:54;12.63;;;12.23;;
22068;SDS011;13887;57.196;-2.100;2024-02-28T01:21:22;13.07;;;12.67;;
22068;SDS011;13887;57.196;-2.100;2024-02-28T01:23:49;13.00;;;12.60;;
22068;SDS011;13887;57.196;-2.100;2024-02-28T01:26:16;12.97;;;12.57;;
22068;SDS011;13887;57.196;-2.100;2024-02-28T01:28:44;12.77;;;12.37;;
22068;SDS011;13887;57.196;-2.100;2024-02-28T01:31:11;12.93;;;12.53;;
22068;SDS011;13887;57.196;-2.100;2024-02-28T01:33:38;12.73;;;12.33;;
22068;SDS011;13887;57.196;-2.100;2024-02-28T01:36:07;12.63;;;12.23;;
22068;SDS011;13887;57.196;-2.100;2024-02-28T01:38:34;12.60;;;12.20;;
22068;SDS011;13887;57.196;-2.100;2024-02-28T01:41:01;12.57;;;12.17;;
22068;SDS011;13887;57.196;-2.100;2024-02-28T01:43:29;12.50;;;12.10;;
22068;SDS011;13887;57.196;-2.100;2024-02-28T01:45:56;12.83;;;12.43;;
22068;SDS011;13887;57.196;-2.100;2024-02-28T01:48:26;12.77;;;12.37;;
22068;SDS011;13887;57.196;-2.100;2024-02-28T01:50:53;12.53;;;12.13;;
22068;SDS011;13887;57.196;-2.100;2024-02-28T01:53:21;12.43;;;12.03;;
22068;SDS011;13887;57.196;-2.100;2024-02-28T01:55:48;12.50;;;12.10;;
22068;SDS011;13887;57.196;-2.100;2024-02-28T01:58:16;12.10;;;11.70;;
22068;SDS011;13887;57.196;-2.100;2024-02-28T02:00:43;12.37;;;11.97;;
22068;SDS011;13887;57.196;-2.100;2024-02-28T02:03:12;12.30;;;11.90;;
22068;SDS011;13887;57.196;-2.100;2024-02-28T02:05:41;12.60;;;12.20;;
22068;SDS011;13887;57.196;-2.100;2024-02-28T02:08:08;12.87;;;12.47;;
22068;SDS011;13887;57.196;-2.100;2024-02-28T02:10:36;13.10;;;12.70;;
22068;SDS011;13887;57.196;-2.100;2024-02-28T02:13:06;12.53;;;12.13;;
22068;SDS011;13887;57.196;-2.100;2024-02-28T02:15:34;12.93;;;12.53;;
22068;SDS011;13887;57.196;-2.100;2024-02-28T02:18:01;12.60;;;12.20;;
22068;SDS011;13887;57.196;-2.100;2024-02-28T02:21:02;13.13;;;12.73;;
22068;SDS011;13887;57.196;-2.100;2024-02-28T02:24:05;13.10;;;12.70;;
22068;SDS011;13887;57.196;-2.100;2024-02-28T02:27:05;13.00;;;12.60;;
22068;SDS011;13887;57.196;-2.100;2024-02-28T02:30:05;13.03;;;12.63;;
22068;SDS011;13887;57.196;-2.100;2024-02-28T02:32:32;12.57;;;12.17;;
22068;SDS011;13887;57.196;-2.100;2024-02-28T02:34:59;12.67;;;12.27;;
22068;SDS011;13887;57.196;-2.100;2024-02-28T02:37:27;12.90;;;12.50;;
22068;SDS011;13887;57.196;-2.100;2024-02-28T02:39:54;12.80;;;12.40;;
22068;SDS011;13887;57.196;-2.100;2024-02-28T02:42:22;12.53;;;12.13;;
22068;SDS011;13887;57.196;-2.100;2024-02-28T02:44:49;12.47;;;12.07;;
22068;SDS011;13887;57.196;-2.100;2024-02-28T02:47:16;12.23;;;11.83;;
22068;SDS011;13887;57.196;-2.100;2024-02-28T02:49:43;12.40;;;12.00;;
22068;SDS011;13887;57.196;-2.100;2024-02-28T02:52:11;12.90;;;12.50;;
22068;SDS011;13887;57.196;-2.100;2024-02-28T02:54:38;12.33;;;11.93;;
22068;SDS011;13887;57.196;-2.100;2024-02-28T02:57:05;12.57;;;12.17;;
22068;SDS011;13887;57.196;-2.100;2024-02-28T02:59:32;12.53;;;12.13;;
22068;SDS011;13887;57.196;-2.100;2024-02-28T03:01:59;12.90;;;12.50;;
22068;SDS011;13887;57.196;-2.100;2024-02-28T03:04:27;12.83;;;12.43;;
22068;SDS011;13887;57.196;-2.100;2024-02-28T03:06:54;12.50;;;12.10;;
22068;SDS011;13887;57.196;-2.100;2024-02-28T03:09:21;13.00;;;12.60;;
22068;SDS011;13887;57.196;-2.100;2024-02-28T03:11:48;13.30;;;12.90;;
22068;SDS011;13887;57.196;-2.100;2024-02-28T03:14:16;13.10;;;12.70;;
22068;SDS011;13887;57.196;-2.100;2024-02-28T03:16:43;13.43;;;12.97;;
22068;SDS011;13887;57.196;-2.100;2024-02-28T03:19:11;12.43;;;12.03;;
22068;SDS011;13887;57.196;-2.100;2024-02-28T03:21:38;13.00;;;12.60;;
22068;SDS011;13887;57.196;-2.100;2024-02-28T03:24:06;13.00;;;12.60;;
22068;SDS011;13887;57.196;-2.100;2024-02-28T03:26:33;12.50;;;12.10;;
22068;SDS011;13887;57.196;-2.100;2024-02-28T03:29:00;12.80;;;12.40;;
22068;SDS011;13887;57.196;-2.100;2024-02-28T03:31:28;12.40;;;12.00;;
22068;SDS011;13887;57.196;-2.100;2024-02-28T03:33:55;12.77;;;12.37;;
22068;SDS011;13887;57.196;-2.100;2024-02-28T03:36:23;12.40;;;12.00;;
22068;SDS011;13887;57.196;-2.100;2024-02-28T03:38:50;12.57;;;12.17;;
22068;SDS011;13887;57.196;-2.100;2024-02-28T03:41:17;12.50;;;12.10;;
22068;SDS011;13887;57.196;-2.100;2024-02-28T03:43:45;13.13;;;12.73;;
22068;SDS011;13887;57.196;-2.100;2024-02-28T03:46:12;12.80;;;12.40;;
22068;SDS011;13887;57.196;-2.100;2024-02-28T03:48:39;12.97;;;12.57;;
22068;SDS011;13887;57.196;-2.100;2024-02-28T03:51:06;12.97;;;12.57;;
22068;SDS011;13887;57.196;-2.100;2024-02-28T03:53:34;13.00;;;12.60;;
22068;SDS011;13887;57.196;-2.100;2024-02-28T03:56:01;12.90;;;12.50;;
22068;SDS011;13887;57.196;-2.100;2024-02-28T03:58:28;13.20;;;12.80;;
22068;SDS011;13887;57.196;-2.100;2024-02-28T04:00:56;13.13;;;12.73;;
22068;SDS011;13887;57.196;-2.100;2024-02-28T04:03:23;13.27;;;12.83;;
22068;SDS011;13887;57.196;-2.100;2024-02-28T04:05:50;13.10;;;12.70;;
22068;SDS011;13887;57.196;-2.100;2024-02-28T04:08:17;13.00;;;12.60;;
22068;SDS011;13887;57.196;-2.100;2024-02-28T04:10:45;13.70;;;13.20;;
22068;SDS011;13887;57.196;-2.100;2024-02-28T04:13:12;13.20;;;12.80;;
22068;SDS011;13887;57.196;-2.100;2024-02-28T04:15:39;13.07;;;12.67;;
22068;SDS011;13887;57.196;-2.100;2024-02-28T04:18:06;13.20;;;12.80;;
22068;SDS011;13887;57.196;-2.100;2024-02-28T04:20:34;13.27;;;12.87;;
22068;SDS011;13887;57.196;-2.100;2024-02-28T04:23:01;13.40;;;12.93;;
22068;SDS011;13887;57.196;-2.100;2024-02-28T04:25:28;13.00;;;12.60;;
22068;SDS011;13887;57.196;-2.100;2024-02-28T04:27:56;13.13;;;12.73;;
22068;SDS011;13887;57.196;-2.100;2024-02-28T04:30:24;13.30;;;12.90;;
22068;SDS011;13887;57.196;-2.100;2024-02-28T04:32:51;12.93;;;12.53;;
22068;SDS011;13887;57.196;-2.100;2024-02-28T04:35:18;12.97;;;12.57;;
22068;SDS011;13887;57.196;-2.100;2024-02-28T04:37:46;13.10;;;12.70;;
22068;SDS011;13887;57.196;-2.100;2024-02-28T04:40:13;12.77;;;12.37;;
22068;SDS011;13887;57.196;-2.100;2024-02-28T04:42:42;12.80;;;12.40;;
22068;SDS011;13887;57.196;-2.100;2024-02-28T04:45:12;13.13;;;12.73;;
22068;SDS011;13887;57.196;-2.100;2024-02-28T04:47:39;13.00;;;12.60;;
22068;SDS011;13887;57.196;-2.100;2024-02-28T04:50:10;12.90;;;12.50;;
22068;SDS011;13887;57.196;-2.100;2024-02-28T04:52:38;12.97;;;12.57;;
22068;SDS011;13887;57.196;-2.100;2024-02-28T04:55:05;12.80;;;12.40;;
22068;SDS011;13887;57.196;-2.100;2024-02-28T04:57:33;12.93;;;12.53;;
22068;SDS011;13887;57.196;-2.100;2024-02-28T05:00:00;12.77;;;12.37;;
22068;SDS011;13887;57.196;-2.100;2024-02-28T05:02:29;12.83;;;12.43;;
22068;SDS011;13887;57.196;-2.100;2024-02-28T05:04:56;12.83;;;12.43;;
22068;SDS011;13887;57.196;-2.100;2024-02-28T05:07:25;13.00;;;12.60;;
22068;SDS011;13887;57.196;-2.100;2024-02-28T05:09:52;13.00;;;12.60;;
22068;SDS011;13887;57.196;-2.100;2024-02-28T05:12:19;12.63;;;12.23;;
22068;SDS011;13887;57.196;-2.100;2024-02-28T05:14:46;13.10;;;12.70;;
22068;SDS011;13887;57.196;-2.100;2024-02-28T05:17:16;12.90;;;12.50;;
22068;SDS011;13887;57.196;-2.100;2024-02-28T05:19:44;13.33;;;12.90;;
22068;SDS011;13887;57.196;-2.100;2024-02-28T05:22:11;12.70;;;12.30;;
22068;SDS011;13887;57.196;-2.100;2024-02-28T05:24:38;13.07;;;12.67;;
22068;SDS011;13887;57.196;-2.100;2024-02-28T05:27:06;12.80;;;12.40;;
22068;SDS011;13887;57.196;-2.100;2024-02-28T05:29:33;12.90;;;12.50;;
22068;SDS011;13887;57.196;-2.100;2024-02-28T05:32:00;13.20;;;12.80;;
22068;SDS011;13887;57.196;-2.100;2024-02-28T05:34:27;12.97;;;12.57;;
22068;SDS011;13887;57.196;-2.100;2024-02-28T05:36:55;12.83;;;12.43;;
22068;SDS011;13887;57.196;-2.100;2024-02-28T05:39:22;12.80;;;12.40;;
22068;SDS011;13887;57.196;-2.100;2024-02-28T05:41:49;13.07;;;12.67;;
22068;SDS011;13887;57.196;-2.100;2024-02-28T05:44:17;13.13;;;12.73;;
22068;SDS011;13887;57.196;-2.100;2024-02-28T05:46:44;13.27;;;12.83;;
22068;SDS011;13887;57.196;-2.100;2024-02-28T05:49:11;13.63;;;13.13;;
22068;SDS011;13887;57.196;-2.100;2024-02-28T05:51:38;12.97;;;12.57;;
22068;SDS011;13887;57.196;-2.100;2024-02-28T05:54:06;13.40;;;12.90;;
22068;SDS011;13887;57.196;-2.100;2024-02-28T05:56:33;13.37;;;12.90;;
22068;SDS011;13887;57.196;-2.100;2024-02-28T05:59:00;13.20;;;12.80;;
22068;SDS011;13887;57.196;-2.100;2024-02-28T06:01:28;13.50;;;13.00;;
22068;SDS011;13887;57.196;-2.100;2024-02-28T06:03:55;13.93;;;13.43;;
22068;SDS011;13887;57.196;-2.100;2024-02-28T06:06:22;14.03;;;13.53;;
22068;SDS011;13887;57.196;-2.100;2024-02-28T06:08:50;13.63;;;13.13;;
22068;SDS011;13887;57.196;-2.100;2024-02-28T06:11:17;13.80;;;13.30;;
22068;SDS011;13887;57.196;-2.100;2024-02-28T06:13:44;13.87;;;13.37;;
22068;SDS011;13887;57.196;-2.100;2024-02-28T06:16:14;13.30;;;12.87;;
22068;SDS011;13887;57.196;-2.100;2024-02-28T06:18:43;13.70;;;13.20;;
22068;SDS011;13887;57.196;-2.100;2024-02-28T06:21:10;13.53;;;13.03;;
22068;SDS011;13887;57.196;-2.100;2024-02-28T06:23:37;14.00;;;13.50;;
22068;SDS011;13887;57.196;-2.100;2024-02-28T06:26:04;13.20;;;12.80;;
22068;SDS011;13887;57.196;-2.100;2024-02-28T06:28:32;13.70;;;13.20;;
22068;SDS011;13887;57.196;-2.100;2024-02-28T06:30:59;13.97;;;13.47;;
22068;SDS011;13887;57.196;-2.100;2024-02-28T06:33:27;13.53;;;13.03;;
22068;SDS011;13887;57.196;-2.100;2024-02-28T06:35:54;13.93;;;13.43;;
22068;SDS011;13887;57.196;-2.100;2024-02-28T06:38:21;13.60;;;13.10;;
22068;SDS011;13887;57.196;-2.100;2024-02-28T06:40:49;14.03;;;13.53;;
22068;SDS011;13887;57.196;-2.100;2024-02-28T06:43:16;13.93;;;13.43;;
22068;SDS011;13887;57.196;-2.100;2024-02-28T06:45:43;13.00;;;12.60;;
22068;SDS011;13887;57.196;-2.100;2024-02-28T06:48:10;13.00;;;12.60;;
22068;SDS011;13887;57.196;-2.100;2024-02-28T06:50:37;13.10;;;12.70;;
22068;SDS011;13887;57.196;-2.100;2024-02-28T06:53:05;13.43;;;12.93;;
22068;SDS011;13887;57.196;-2.100;2024-02-28T06:55:32;12.90;;;12.50;;
22068;SDS011;13887;57.196;-2.100;2024-02-28T06:57:59;12.87;;;12.47;;
22068;SDS011;13887;57.196;-2.100;2024-02-28T07:00:26;13.47;;;12.97;;
22068;SDS011;13887;57.196;-2.100;2024-02-28T07:02:54;13.13;;;12.73;;
22068;SDS011;13887;57.196;-2.100;2024-02-28T07:05:21;12.80;;;12.40;;
22068;SDS011;13887;57.196;-2.100;2024-02-28T07:07:48;13.27;;;12.87;;
22068;SDS011;13887;57.196;-2.100;2024-02-28T07:10:16;13.57;;;13.07;;
22068;SDS011;13887;57.196;-2.100;2024-02-28T07:12:43;13.30;;;12.90;;
22068;SDS011;13887;57.196;-2.100;2024-02-28T07:15:10;12.87;;;12.47;;
22068;SDS011;13887;57.196;-2.100;2024-02-28T07:17:38;12.43;;;12.03;;
22068;SDS011;13887;57.196;-2.100;2024-02-28T07:20:05;12.90;;;12.50;;
22068;SDS011;13887;57.196;-2.100;2024-02-28T07:22:33;13.13;;;12.73;;
22068;SDS011;13887;57.196;-2.100;2024-02-28T07:25:01;13.00;;;12.60;;
22068;SDS011;13887;57.196;-2.100;2024-02-28T07:27:28;12.70;;;12.30;;
22068;SDS011;13887;57.196;-2.100;2024-02-28T07:29:55;12.77;;;12.37;;
22068;SDS011;13887;57.196;-2.100;2024-02-28T07:32:23;12.60;;;12.20;;
22068;SDS011;13887;57.196;-2.100;2024-02-28T07:34:50;13.27;;;12.87;;
22068;SDS011;13887;57.196;-2.100;2024-02-28T07:37:17;12.87;;;12.47;;
22068;SDS011;13887;57.196;-2.100;2024-02-28T07:39:45;12.60;;;12.20;;
22068;SDS011;13887;57.196;-2.100;2024-02-28T07:42:12;13.40;;;13.00;;
22068;SDS011;13887;57.196;-2.100;2024-02-28T07:44:39;12.67;;;12.27;;
22068;SDS011;13887;57.196;-2.100;2024-02-28T07:47:08;13.07;;;12.67;;
22068;SDS011;13887;57.196;-2.100;2024-02-28T07:49:35;13.00;;;12.60;;
22068;SDS011;13887;57.196;-2.100;2024-02-28T07:52:02;13.10;;;12.70;;
22068;SDS011;13887;57.196;-2.100;2024-02-28T07:54:30;12.90;;;12.50;;
22068;SDS011;13887;57.196;-2.100;2024-02-28T07:56:57;12.77;;;12.37;;
22068;SDS011;13887;57.196;-2.100;2024-02-28T07:59:24;13.23;;;12.83;;
22068;SDS011;13887;57.196;-2.100;2024-02-28T08:01:52;12.97;;;12.57;;
22068;SDS011;13887;57.196;-2.100;2024-02-28T08:04:19;12.97;;;12.57;;
22068;SDS011;13887;57.196;-2.100;2024-02-28T08:06:46;12.70;;;12.30;;
22068;SDS011;13887;57.196;-2.100;2024-02-28T08:09:14;12.90;;;12.50;;
22068;SDS011;13887;57.196;-2.100;2024-02-28T08:11:42;12.97;;;12.57;;
22068;SDS011;13887;57.196;-2.100;2024-02-28T08:14:09;13.33;;;12.93;;
22068;SDS011;13887;57.196;-2.100;2024-02-28T08:16:37;13.10;;;12.70;;
22068;SDS011;13887;57.196;-2.100;2024-02-28T08:19:04;13.70;;;13.20;;
22068;SDS011;13887;57.196;-2.100;2024-02-28T08:21:31;13.17;;;12.77;;
22068;SDS011;13887;57.196;-2.100;2024-02-28T08:23:58;13.20;;;12.80;;
22068;SDS011;13887;57.196;-2.100;2024-02-28T08:26:26;13.07;;;12.67;;
22068;SDS011;13887;57.196;-2.100;2024-02-28T08:28:53;12.77;;;12.37;;
22068;SDS011;13887;57.196;-2.100;2024-02-28T08:31:21;12.90;;;12.50;;
22068;SDS011;13887;57.196;-2.100;2024-02-28T08:33:48;13.33;;;12.93;;
22068;SDS011;13887;57.196;-2.100;2024-02-28T08:36:16;13.03;;;12.63;;
22068;SDS011;13887;57.196;-2.100;2024-02-28T08:38:43;13.20;;;12.80;;
22068;SDS011;13887;57.196;-2.100;2024-02-28T08:41:11;13.10;;;12.70;;
22068;SDS011;13887;57.196;-2.100;2024-02-28T08:43:39;13.10;;;12.70;;
22068;SDS011;13887;57.196;-2.100;2024-02-28T08:46:06;12.90;;;12.50;;
22068;SDS011;13887;57.196;-2.100;2024-02-28T08:48:34;12.83;;;12.43;;
22068;SDS011;13887;57.196;-2.100;2024-02-28T08:51:01;13.30;;;12.90;;
22068;SDS011;13887;57.196;-2.100;2024-02-28T08:53:29;13.00;;;12.60;;
22068;SDS011;13887;57.196;-2.100;2024-02-28T08:55:56;13.00;;;12.60;;
22068;SDS011;13887;57.196;-2.100;2024-02-28T08:58:23;13.07;;;12.67;;
22068;SDS011;13887;57.196;-2.100;2024-02-28T09:00:50;13.10;;;12.70;;
22068;SDS011;13887;57.196;-2.100;2024-02-28T09:03:18;12.50;;;12.10;;
22068;SDS011;13887;57.196;-2.100;2024-02-28T09:05:46;12.90;;;12.50;;
22068;SDS011;13887;57.196;-2.100;2024-02-28T09:08:14;12.90;;;12.50;;
22068;SDS011;13887;57.196;-2.100;2024-02-28T09:10:41;13.00;;;12.60;;
22068;SDS011;13887;57.196;-2.100;2024-02-28T09:13:09;13.20;;;12.80;;
22068;SDS011;13887;57.196;-2.100;2024-02-28T09:15:38;13.23;;;12.83;;
22068;SDS011;13887;57.196;-2.100;2024-02-28T09:18:06;13.00;;;12.60;;
22068;SDS011;13887;57.196;-2.100;2024-02-28T09:20:34;12.23;;;11.83;;
22068;SDS011;13887;57.196;-2.100;2024-02-28T09:23:01;12.80;;;12.40;;
22068;SDS011;13887;57.196;-2.100;2024-02-28T09:25:28;12.90;;;12.50;;
22068;SDS011;13887;57.196;-2.100;2024-02-28T09:27:57;13.27;;;12.87;;
22068;SDS011;13887;57.196;-2.100;2024-02-28T09:30:24;13.33;;;12.93;;
22068;SDS011;13887;57.196;-2.100;2024-02-28T09:32:58;13.40;;;13.00;;
22068;SDS011;13887;57.196;-2.100;2024-02-28T09:35:25;13.30;;;12.90;;
22068;SDS011;13887;57.196;-2.100;2024-02-28T09:37:53;13.40;;;13.00;;
22068;SDS011;13887;57.196;-2.100;2024-02-28T09:40:20;13.40;;;13.00;;
22068;SDS011;13887;57.196;-2.100;2024-02-28T09:42:48;13.33;;;12.93;;
22068;SDS011;13887;57.196;-2.100;2024-02-28T09:45:21;13.23;;;12.83;;
22068;SDS011;13887;57.196;-2.100;2024-02-28T09:47:48;13.17;;;12.77;;
22068;SDS011;13887;57.196;-2.100;2024-02-28T09:50:17;12.80;;;12.40;;
22068;SDS011;13887;57.196;-2.100;2024-02-28T09:52:45;13.00;;;12.60;;
22068;SDS011;13887;57.196;-2.100;2024-02-28T09:55:27;13.30;;;12.90;;
22068;SDS011;13887;57.196;-2.100;2024-02-28T09:57:54;12.47;;;12.07;;
22068;SDS011;13887;57.196;-2.100;2024-02-28T10:00:22;12.20;;;11.80;;
22068;SDS011;13887;57.196;-2.100;2024-02-28T10:02:50;13.03;;;12.63;;
22068;SDS011;13887;57.196;-2.100;2024-02-28T10:05:18;13.30;;;12.90;;
22068;SDS011;13887;57.196;-2.100;2024-02-28T10:07:45;13.30;;;12.90;;
22068;SDS011;13887;57.196;-2.100;2024-02-28T10:10:14;12.90;;;12.50;;
22068;SDS011;13887;57.196;-2.100;2024-02-28T10:12:41;12.77;;;12.37;;
22068;SDS011;13887;57.196;-2.100;2024-02-28T10:15:10;12.97;;;12.57;;
22068;SDS011;13887;57.196;-2.100;2024-02-28T10:17:37;12.83;;;12.43;;
22068;SDS011;13887;57.196;-2.100;2024-02-28T10:20:05;13.10;;;12.70;;
22068;SDS011;13887;57.196;-2.100;2024-02-28T10:22:36;13.07;;;12.67;;
22068;SDS011;13887;57.196;-2.100;2024-02-28T10:25:03;12.83;;;12.43;;
22068;SDS011;13887;57.196;-2.100;2024-02-28T10:27:34;13.37;;;12.97;;
22068;SDS011;13887;57.196;-2.100;2024-02-28T10:30:02;13.53;;;13.03;;
22068;SDS011;13887;57.196;-2.100;2024-02-28T10:32:33;13.47;;;13.03;;
22068;SDS011;13887;57.196;-2.100;2024-02-28T10:35:03;13.10;;;12.70;;
22068;SDS011;13887;57.196;-2.100;2024-02-28T10:37:38;13.03;;;12.63;;
22068;SDS011;13887;57.196;-2.100;2024-02-28T10:40:06;13.27;;;12.87;;
22068;SDS011;13887;57.196;-2.100;2024-02-28T10:42:34;13.40;;;12.97;;
22068;SDS011;13887;57.196;-2.100;2024-02-28T10:45:02;13.23;;;12.83;;
22068;SDS011;13887;57.196;-2.100;2024-02-28T10:47:46;13.27;;;12.83;;
22068;SDS011;13887;57.196;-2.100;2024-02-28T10:50:17;13.70;;;13.20;;
22068;SDS011;13887;57.196;-2.100;2024-02-28T10:52:48;13.03;;;12.63;;
22068;SDS011;13887;57.196;-2.100;2024-02-28T10:55:20;13.17;;;12.77;;
22068;SDS011;13887;57.196;-2.100;2024-02-28T10:57:54;13.43;;;13.00;;
22068;SDS011;13887;57.196;-2.100;2024-02-28T11:00:29;12.97;;;12.57;;
22068;SDS011;13887;57.196;-2.100;2024-02-28T11:02:57;13.23;;;12.83;;
22068;SDS011;13887;57.196;-2.100;2024-02-28T11:05:35;12.53;;;12.13;;
22068;SDS011;13887;57.196;-2.100;2024-02-28T11:10:58;12.37;;;11.97;;
22068;SDS011;13887;57.196;-2.100;2024-02-28T11:13:30;12.77;;;12.37;;
22068;SDS011;13887;57.196;-2.100;2024-02-28T11:16:06;13.40;;;13.00;;
22068;SDS011;13887;57.196;-2.100;2024-02-28T11:18:35;12.90;;;12.50;;
22068;SDS011;13887;57.196;-2.100;2024-02-28T11:21:02;13.00;;;12.60;;
22068;SDS011;13887;57.196;-2.100;2024-02-28T11:23:37;12.90;;;12.50;;
22068;SDS011;13887;57.196;-2.100;2024-02-28T11:26:04;13.43;;;13.03;;
22068;SDS011;13887;57.196;-2.100;2024-02-28T11:28:31;13.30;;;12.90;;
22068;SDS011;13887;57.196;-2.100;2024-02-28T11:30:59;12.97;;;12.57;;
22068;SDS011;13887;57.196;-2.100;2024-02-28T11:33:26;12.93;;;12.53;;
22068;SDS011;13887;57.196;-2.100;2024-02-28T11:35:55;13.10;;;12.70;;
22068;SDS011;13887;57.196;-2.100;2024-02-28T11:38:26;13.20;;;12.80;;
22068;SDS011;13887;57.196;-2.100;2024-02-28T11:40:53;13.30;;;12.90;;
22068;SDS011;13887;57.196;-2.100;2024-02-28T11:43:22;13.50;;;13.10;;
22068;SDS011;13887;57.196;-2.100;2024-02-28T11:45:51;13.10;;;12.70;;
22068;SDS011;13887;57.196;-2.100;2024-02-28T11:48:19;13.70;;;13.20;;
22068;SDS011;13887;57.196;-2.100;2024-02-28T11:50:46;12.50;;;12.10;;
22068;SDS011;13887;57.196;-2.100;2024-02-28T11:53:13;12.80;;;12.40;;
22068;SDS011;13887;57.196;-2.100;2024-02-28T11:55:40;13.00;;;12.60;;
22068;SDS011;13887;57.196;-2.100;2024-02-28T11:58:08;12.90;;;12.50;;
22068;SDS011;13887;57.196;-2.100;2024-02-28T12:00:46;12.93;;;12.53;;
22068;SDS011;13887;57.196;-2.100;2024-02-28T12:03:14;12.90;;;12.50;;
22068;SDS011;13887;57.196;-2.100;2024-02-28T12:05:47;13.10;;;12.70;;
22068;SDS011;13887;57.196;-2.100;2024-02-28T12:08:16;13.23;;;12.83;;
22068;SDS011;13887;57.196;-2.100;2024-02-28T12:10:46;12.90;;;12.50;;
22068;SDS011;13887;57.196;-2.100;2024-02-28T12:13:17;12.83;;;12.43;;
22068;SDS011;13887;57.196;-2.100;2024-02-28T12:15:45;13.10;;;12.70;;
22068;SDS011;13887;57.196;-2.100;2024-02-28T12:18:16;13.20;;;12.80;;
22068;SDS011;13887;57.196;-2.100;2024-02-28T12:20:44;13.70;;;13.20;;
22068;SDS011;13887;57.196;-2.100;2024-02-28T12:23:12;13.10;;;12.70;;
22068;SDS011;13887;57.196;-2.100;2024-02-28T12:25:39;13.03;;;12.63;;
22068;SDS011;13887;57.196;-2.100;2024-02-28T12:28:06;13.10;;;12.70;;
22068;SDS011;13887;57.196;-2.100;2024-02-28T12:30:39;12.60;;;12.20;;
22068;SDS011;13887;57.196;-2.100;2024-02-28T12:33:08;12.87;;;12.47;;
22068;SDS011;13887;57.196;-2.100;2024-02-28T12:35:38;12.80;;;12.40;;
22068;SDS011;13887;57.196;-2.100;2024-02-28T12:38:05;12.90;;;12.50;;
22068;SDS011;13887;57.196;-2.100;2024-02-28T12:40:33;12.30;;;11.90;;
22068;SDS011;13887;57.196;-2.100;2024-02-28T12:43:00;12.47;;;12.07;;
22068;SDS011;13887;57.196;-2.100;2024-02-28T12:45:27;12.13;;;11.73;;
22068;SDS011;13887;57.196;-2.100;2024-02-28T12:47:54;12.70;;;12.30;;
22068;SDS011;13887;57.196;-2.100;2024-02-28T12:50:23;12.77;;;12.37;;
22068;SDS011;13887;57.196;-2.100;2024-02-28T12:52:51;12.90;;;12.50;;
22068;SDS011;13887;57.196;-2.100;2024-02-28T12:55:20;13.10;;;12.70;;
22068;SDS011;13887;57.196;-2.100;2024-02-28T12:57:48;13.77;;;13.27;;
22068;SDS011;13887;57.196;-2.100;2024-02-28T13:00:15;13.77;;;13.27;;
22068;SDS011;13887;57.196;-2.100;2024-02-28T13:02:43;13.63;;;13.13;;
22068;SDS011;13887;57.196;-2.100;2024-02-28T13:05:11;13.70;;;13.20;;
22068;SDS011;13887;57.196;-2.100;2024-02-28T13:07:40;13.23;;;12.83;;
22068;SDS011;13887;57.196;-2.100;2024-02-28T13:10:07;13.33;;;12.93;;
22068;SDS011;13887;57.196;-2.100;2024-02-28T13:12:37;13.83;;;13.33;;
22068;SDS011;13887;57.196;-2.100;2024-02-28T13:15:06;13.77;;;13.27;;
22068;SDS011;13887;57.196;-2.100;2024-02-28T13:17:34;13.33;;;12.93;;
22068;SDS011;13887;57.196;-2.100;2024-02-28T13:20:02;13.80;;;13.30;;
22068;SDS011;13887;57.196;-2.100;2024-02-28T13:22:30;14.20;;;13.70;;
22068;SDS011;13887;57.196;-2.100;2024-02-28T13:24:57;13.90;;;13.40;;
22068;SDS011;13887;57.196;-2.100;2024-02-28T13:27:25;14.27;;;13.77;;
22068;SDS011;13887;57.196;-2.100;2024-02-28T13:29:52;14.13;;;13.63;;
22068;SDS011;13887;57.196;-2.100;2024-02-28T13:32:19;13.70;;;13.20;;
22068;SDS011;13887;57.196;-2.100;2024-02-28T13:34:47;13.93;;;13.43;;
22068;SDS011;13887;57.196;-2.100;2024-02-28T13:37:15;13.63;;;13.13;;
22068;SDS011;13887;57.196;-2.100;2024-02-28T13:39:43;13.73;;;13.23;;
22068;SDS011;13887;57.196;-2.100;2024-02-28T13:42:10;14.00;;;13.50;;
22068;SDS011;13887;57.196;-2.100;2024-02-28T13:44:38;13.60;;;13.10;;
22068;SDS011;13887;57.196;-2.100;2024-02-28T13:47:07;13.47;;;13.07;;
22068;SDS011;13887;57.196;-2.100;2024-02-28T13:49:34;13.20;;;12.80;;
22068;SDS011;13887;57.196;-2.100;2024-02-28T13:52:02;13.53;;;13.03;;
22068;SDS011;13887;57.196;-2.100;2024-02-28T13:54:29;13.60;;;13.10;;
22068;SDS011;13887;57.196;-2.100;2024-02-28T13:56:56;13.70;;;13.20;;
22068;SDS011;13887;57.196;-2.100;2024-02-28T13:59:25;14.10;;;13.60;;
22068;SDS011;13887;57.196;-2.100;2024-02-28T14:01:52;13.93;;;13.43;;
22068;SDS011;13887;57.196;-2.100;2024-02-28T14:04:19;13.20;;;12.80;;
22068;SDS011;13887;57.196;-2.100;2024-02-28T14:06:46;13.73;;;13.23;;
22068;SDS011;13887;57.196;-2.100;2024-02-28T14:09:14;13.17;;;12.77;;
22068;SDS011;13887;57.196;-2.100;2024-02-28T14:11:42;13.77;;;13.27;;
22068;SDS011;13887;57.196;-2.100;2024-02-28T14:14:10;13.93;;;13.43;;
22068;SDS011;13887;57.196;-2.100;2024-02-28T14:16:38;13.60;;;13.10;;